sensor_id;sensor_type;location;lat;lon;timestamp;P1;durP1;ratioP1;P2;durP2;ratioP2
17259;SDS011;8746;49.230;9.220;2022-11-03T00:00:33;6.00;;;4.10;;
17259;SDS011;8746;49.230;9.220;2022-11-03T00:02:58;8.30;;;4.73;;
17259;SDS011;8746;49.230;9.220;2022-11-03T00:05:24;8.13;;;4.90;;
17259;SDS011;8746;49.230;9.220;2022-11-03T00:08:07;6.37;;;3.70;;
17259;SDS011;8746;49.230;9.220;2022-11-03T00:10:32;7.37;;;4.40;;
17259;SDS011;8746;49.230;9.220;2022-11-03T00:12:58;7.07;;;4.33;;
17259;SDS011;8746;49.230;9.220;2022-11-03T00:15:23;6.13;;;4.27;;
17259;SDS011;8746;49.230;9.220;2022-11-03T00:17:48;5.17;;;4.27;;
17259;SDS011;8746;49.230;9.220;2022-11-03T00:20:14;5.37;;;4.10;;
17259;SDS011;8746;49.230;9.220;2022-11-03T00:22:39;4.80;;;3.57;;
17259;SDS011;8746;49.230;9.220;2022-11-03T00:25:05;5.47;;;3.80;;
17259;SDS011;8746;49.230;9.220;2022-11-03T00:27:31;4.20;;;3.33;;
17259;SDS011;8746;49.230;9.220;2022-11-03T00:29:56;4.13;;;3.27;;
17259;SDS011;8746;49.230;9.220;2022-11-03T00:32:21;6.90;;;3.77;;
17259;SDS011;8746;49.230;9.220;2022-11-03T00:34:47;4.97;;;3.03;;
17259;SDS011;8746;49.230;9.220;2022-11-03T00:37:12;5.83;;;3.47;;
17259;SDS011;8746;49.230;9.220;2022-11-03T00:39:37;6.97;;;3.80;;
17259;SDS011;8746;49.230;9.220;2022-11-03T00:42:03;4.90;;;3.83;;
17259;SDS011;8746;49.230;9.220;2022-11-03T00:44:28;6.27;;;3.73;;
17259;SDS011;8746;49.230;9.220;2022-11-03T00:46:53;5.03;;;3.97;;
17259;SDS011;8746;49.230;9.220;2022-11-03T00:49:19;7.77;;;3.80;;
17259;SDS011;8746;49.230;9.220;2022-11-03T00:51:44;4.50;;;3.47;;
17259;SDS011;8746;49.230;9.220;2022-11-03T00:54:09;7.00;;;3.40;;
17259;SDS011;8746;49.230;9.220;2022-11-03T00:56:36;5.70;;;4.00;;
17259;SDS011;8746;49.230;9.220;2022-11-03T00:59:03;6.03;;;3.73;;
17259;SDS011;8746;49.230;9.220;2022-11-03T01:01:30;3.60;;;3.30;;
17259;SDS011;8746;49.230;9.220;2022-11-03T01:04:05;5.57;;;3.93;;
17259;SDS011;8746;49.230;9.220;2022-11-03T01:06:49;6.03;;;4.10;;
17259;SDS011;8746;49.230;9.220;2022-11-03T01:09:20;4.00;;;3.57;;
17259;SDS011;8746;49.230;9.220;2022-11-03T01:17:05;4.90;;;3.87;;
17259;SDS011;8746;49.230;9.220;2022-11-03T01:19:32;5.03;;;3.10;;
17259;SDS011;8746;49.230;9.220;2022-11-03T01:21:57;4.60;;;3.63;;
17259;SDS011;8746;49.230;9.220;2022-11-03T01:24:22;8.53;;;3.70;;
17259;SDS011;8746;49.230;9.220;2022-11-03T01:26:48;5.50;;;3.87;;
17259;SDS011;8746;49.230;9.220;2022-11-03T01:29:13;4.27;;;3.60;;
17259;SDS011;8746;49.230;9.220;2022-11-03T01:31:39;4.67;;;3.73;;
17259;SDS011;8746;49.230;9.220;2022-11-03T01:34:04;7.27;;;3.67;;
17259;SDS011;8746;49.230;9.220;2022-11-03T01:36:30;4.87;;;3.33;;
17259;SDS011;8746;49.230;9.220;2022-11-03T01:38:55;4.27;;;3.40;;
17259;SDS011;8746;49.230;9.220;2022-11-03T01:41:22;6.87;;;3.53;;
17259;SDS011;8746;49.230;9.220;2022-11-03T01:44:18;6.50;;;3.27;;
17259;SDS011;8746;49.230;9.220;2022-11-03T01:51:58;4.50;;;3.80;;
17259;SDS011;8746;49.230;9.220;2022-11-03T01:54:49;4.37;;;3.30;;
17259;SDS011;8746;49.230;9.220;2022-11-03T01:57:22;3.67;;;2.93;;
17259;SDS011;8746;49.230;9.220;2022-11-03T01:59:52;8.10;;;3.50;;
17259;SDS011;8746;49.230;9.220;2022-11-03T02:02:19;4.60;;;3.37;;
17259;SDS011;8746;49.230;9.220;2022-11-03T02:04:45;4.67;;;3.27;;
17259;SDS011;8746;49.230;9.220;2022-11-03T02:09:45;6.17;;;3.20;;
17259;SDS011;8746;49.230;9.220;2022-11-03T02:12:10;3.40;;;3.10;;
17259;SDS011;8746;49.230;9.220;2022-11-03T02:14:41;4.67;;;3.13;;
17259;SDS011;8746;49.230;9.220;2022-11-03T02:17:13;4.03;;;2.93;;
17259;SDS011;8746;49.230;9.220;2022-11-03T02:19:48;3.87;;;3.03;;
17259;SDS011;8746;49.230;9.220;2022-11-03T02:22:35;3.60;;;3.30;;
17259;SDS011;8746;49.230;9.220;2022-11-03T02:25:31;4.00;;;3.60;;
17259;SDS011;8746;49.230;9.220;2022-11-03T02:28:02;4.33;;;3.00;;
17259;SDS011;8746;49.230;9.220;2022-11-03T02:30:34;5.93;;;3.70;;
17259;SDS011;8746;49.230;9.220;2022-11-03T02:35:37;5.87;;;3.20;;
17259;SDS011;8746;49.230;9.220;2022-11-03T02:38:08;4.23;;;3.07;;
17259;SDS011;8746;49.230;9.220;2022-11-03T02:40:37;3.90;;;2.87;;
17259;SDS011;8746;49.230;9.220;2022-11-03T02:43:06;3.00;;;2.80;;
17259;SDS011;8746;49.230;9.220;2022-11-03T02:45:34;4.87;;;3.00;;
17259;SDS011;8746;49.230;9.220;2022-11-03T02:48:00;6.47;;;3.13;;
17259;SDS011;8746;49.230;9.220;2022-11-03T02:50:27;5.60;;;3.10;;
17259;SDS011;8746;49.230;9.220;2022-11-03T02:52:54;4.70;;;3.03;;
17259;SDS011;8746;49.230;9.220;2022-11-03T02:55:34;5.07;;;3.37;;
17259;SDS011;8746;49.230;9.220;2022-11-03T03:01:06;6.20;;;3.00;;
17259;SDS011;8746;49.230;9.220;2022-11-03T03:03:42;4.20;;;3.00;;
17259;SDS011;8746;49.230;9.220;2022-11-03T03:06:20;5.33;;;3.00;;
17259;SDS011;8746;49.230;9.220;2022-11-03T03:08:50;4.93;;;3.30;;
17259;SDS011;8746;49.230;9.220;2022-11-03T03:11:20;3.93;;;3.53;;
17259;SDS011;8746;49.230;9.220;2022-11-03T03:14:01;3.00;;;2.60;;
17259;SDS011;8746;49.230;9.220;2022-11-03T03:16:32;5.47;;;3.20;;
17259;SDS011;8746;49.230;9.220;2022-11-03T03:21:47;4.60;;;3.10;;
17259;SDS011;8746;49.230;9.220;2022-11-03T03:24:18;3.47;;;3.17;;
17259;SDS011;8746;49.230;9.220;2022-11-03T03:26:52;5.50;;;3.13;;
17259;SDS011;8746;49.230;9.220;2022-11-03T03:29:27;4.13;;;3.40;;
17259;SDS011;8746;49.230;9.220;2022-11-03T03:31:58;5.23;;;3.57;;
17259;SDS011;8746;49.230;9.220;2022-11-03T03:34:27;3.53;;;3.20;;
17259;SDS011;8746;49.230;9.220;2022-11-03T03:36:56;5.07;;;3.20;;
17259;SDS011;8746;49.230;9.220;2022-11-03T03:39:25;4.17;;;3.10;;
17259;SDS011;8746;49.230;9.220;2022-11-03T03:41:55;3.20;;;2.70;;
17259;SDS011;8746;49.230;9.220;2022-11-03T03:44:22;4.40;;;3.20;;
17259;SDS011;8746;49.230;9.220;2022-11-03T03:46:55;3.97;;;3.20;;
17259;SDS011;8746;49.230;9.220;2022-11-03T03:49:25;3.20;;;2.90;;
17259;SDS011;8746;49.230;9.220;2022-11-03T03:51:51;3.60;;;3.10;;
17259;SDS011;8746;49.230;9.220;2022-11-03T03:54:17;5.67;;;3.13;;
17259;SDS011;8746;49.230;9.220;2022-11-03T03:56:43;5.83;;;3.00;;
17259;SDS011;8746;49.230;9.220;2022-11-03T03:59:16;3.53;;;2.97;;
17259;SDS011;8746;49.230;9.220;2022-11-03T04:01:42;4.70;;;3.10;;
17259;SDS011;8746;49.230;9.220;2022-11-03T04:04:07;3.63;;;3.03;;
17259;SDS011;8746;49.230;9.220;2022-11-03T04:06:32;5.67;;;2.90;;
17259;SDS011;8746;49.230;9.220;2022-11-03T04:08:58;4.47;;;3.50;;
17259;SDS011;8746;49.230;9.220;2022-11-03T04:11:23;5.17;;;3.33;;
17259;SDS011;8746;49.230;9.220;2022-11-03T04:14:08;5.10;;;2.80;;
17259;SDS011;8746;49.230;9.220;2022-11-03T04:16:52;4.13;;;2.97;;
17259;SDS011;8746;49.230;9.220;2022-11-03T04:19:38;3.47;;;2.87;;
17259;SDS011;8746;49.230;9.220;2022-11-03T04:22:22;3.43;;;2.67;;
17259;SDS011;8746;49.230;9.220;2022-11-03T04:24:51;6.37;;;2.87;;
17259;SDS011;8746;49.230;9.220;2022-11-03T04:27:40;4.93;;;3.57;;
17259;SDS011;8746;49.230;9.220;2022-11-03T04:30:09;4.27;;;3.40;;
17259;SDS011;8746;49.230;9.220;2022-11-03T04:32:42;8.00;;;3.20;;
17259;SDS011;8746;49.230;9.220;2022-11-03T04:37:47;4.90;;;3.10;;
17259;SDS011;8746;49.230;9.220;2022-11-03T04:40:19;6.03;;;3.20;;
17259;SDS011;8746;49.230;9.220;2022-11-03T04:42:44;4.43;;;3.30;;
17259;SDS011;8746;49.230;9.220;2022-11-03T04:45:16;3.83;;;2.97;;
17259;SDS011;8746;49.230;9.220;2022-11-03T04:47:43;6.20;;;3.23;;
17259;SDS011;8746;49.230;9.220;2022-11-03T04:50:12;4.23;;;3.20;;
17259;SDS011;8746;49.230;9.220;2022-11-03T04:52:41;4.20;;;3.20;;
17259;SDS011;8746;49.230;9.220;2022-11-03T04:55:09;5.70;;;3.57;;
17259;SDS011;8746;49.230;9.220;2022-11-03T04:57:39;4.57;;;2.97;;
17259;SDS011;8746;49.230;9.220;2022-11-03T05:00:05;3.33;;;2.83;;
17259;SDS011;8746;49.230;9.220;2022-11-03T05:02:31;6.07;;;3.53;;
17259;SDS011;8746;49.230;9.220;2022-11-03T05:04:57;5.80;;;3.23;;
17259;SDS011;8746;49.230;9.220;2022-11-03T05:07:25;4.10;;;3.03;;
17259;SDS011;8746;49.230;9.220;2022-11-03T05:09:59;5.07;;;3.20;;
17259;SDS011;8746;49.230;9.220;2022-11-03T05:12:25;7.13;;;4.03;;
17259;SDS011;8746;49.230;9.220;2022-11-03T05:14:50;6.67;;;4.50;;
17259;SDS011;8746;49.230;9.220;2022-11-03T05:17:24;5.57;;;3.93;;
17259;SDS011;8746;49.230;9.220;2022-11-03T05:19:53;8.23;;;4.47;;
17259;SDS011;8746;49.230;9.220;2022-11-03T05:22:22;7.17;;;4.57;;
17259;SDS011;8746;49.230;9.220;2022-11-03T05:24:55;6.83;;;4.53;;
17259;SDS011;8746;49.230;9.220;2022-11-03T05:27:22;5.90;;;4.50;;
17259;SDS011;8746;49.230;9.220;2022-11-03T05:29:48;5.10;;;3.90;;
17259;SDS011;8746;49.230;9.220;2022-11-03T05:32:24;6.37;;;3.77;;
17259;SDS011;8746;49.230;9.220;2022-11-03T05:34:54;3.77;;;3.30;;
17259;SDS011;8746;49.230;9.220;2022-11-03T05:39:51;5.30;;;3.03;;
17259;SDS011;8746;49.230;9.220;2022-11-03T05:44:50;6.20;;;3.10;;
17259;SDS011;8746;49.230;9.220;2022-11-03T05:49:44;2.90;;;2.63;;
17259;SDS011;8746;49.230;9.220;2022-11-03T05:52:12;4.23;;;2.90;;
17259;SDS011;8746;49.230;9.220;2022-11-03T05:54:41;5.50;;;2.83;;
17259;SDS011;8746;49.230;9.220;2022-11-03T05:57:08;4.23;;;3.07;;
17259;SDS011;8746;49.230;9.220;2022-11-03T05:59:35;5.90;;;3.60;;
17259;SDS011;8746;49.230;9.220;2022-11-03T06:02:01;3.67;;;3.20;;
17259;SDS011;8746;49.230;9.220;2022-11-03T06:04:40;5.17;;;3.60;;
17259;SDS011;8746;49.230;9.220;2022-11-03T06:07:11;6.17;;;3.47;;
17259;SDS011;8746;49.230;9.220;2022-11-03T06:09:47;5.03;;;2.90;;
17259;SDS011;8746;49.230;9.220;2022-11-03T06:12:13;4.33;;;2.90;;
17259;SDS011;8746;49.230;9.220;2022-11-03T06:14:43;2.73;;;2.53;;
17259;SDS011;8746;49.230;9.220;2022-11-03T06:17:09;5.73;;;3.40;;
17259;SDS011;8746;49.230;9.220;2022-11-03T06:19:46;4.93;;;3.13;;
17259;SDS011;8746;49.230;9.220;2022-11-03T06:22:20;2.77;;;2.50;;
17259;SDS011;8746;49.230;9.220;2022-11-03T06:24:48;4.30;;;2.93;;
17259;SDS011;8746;49.230;9.220;2022-11-03T06:27:17;5.40;;;2.83;;
17259;SDS011;8746;49.230;9.220;2022-11-03T06:29:48;3.40;;;2.47;;
17259;SDS011;8746;49.230;9.220;2022-11-03T06:32:16;2.90;;;2.50;;
17259;SDS011;8746;49.230;9.220;2022-11-03T06:34:43;4.37;;;2.90;;
17259;SDS011;8746;49.230;9.220;2022-11-03T06:37:22;3.93;;;3.03;;
17259;SDS011;8746;49.230;9.220;2022-11-03T06:39:50;4.77;;;3.10;;
17259;SDS011;8746;49.230;9.220;2022-11-03T06:42:18;5.00;;;2.97;;
17259;SDS011;8746;49.230;9.220;2022-11-03T06:44:45;5.80;;;3.33;;
17259;SDS011;8746;49.230;9.220;2022-11-03T06:47:23;5.17;;;3.30;;
17259;SDS011;8746;49.230;9.220;2022-11-03T06:49:50;5.10;;;3.47;;
17259;SDS011;8746;49.230;9.220;2022-11-03T06:57:33;6.23;;;5.53;;
17259;SDS011;8746;49.230;9.220;2022-11-03T07:00:05;6.10;;;4.90;;
17259;SDS011;8746;49.230;9.220;2022-11-03T07:05:39;6.57;;;3.47;;
17259;SDS011;8746;49.230;9.220;2022-11-03T07:11:19;2.93;;;2.60;;
17259;SDS011;8746;49.230;9.220;2022-11-03T07:14:09;3.20;;;2.60;;
17259;SDS011;8746;49.230;9.220;2022-11-03T07:16:47;3.30;;;2.73;;
17259;SDS011;8746;49.230;9.220;2022-11-03T07:27:28;3.40;;;2.70;;
17259;SDS011;8746;49.230;9.220;2022-11-03T07:30:13;5.53;;;2.53;;
17259;SDS011;8746;49.230;9.220;2022-11-03T07:32:39;6.77;;;3.20;;
17259;SDS011;8746;49.230;9.220;2022-11-03T07:37:49;5.40;;;3.10;;
17259;SDS011;8746;49.230;9.220;2022-11-03T07:40:23;7.40;;;3.60;;
17259;SDS011;8746;49.230;9.220;2022-11-03T07:42:50;5.43;;;3.57;;
17259;SDS011;8746;49.230;9.220;2022-11-03T07:48:01;7.83;;;4.03;;
17259;SDS011;8746;49.230;9.220;2022-11-03T07:50:36;6.80;;;3.90;;
17259;SDS011;8746;49.230;9.220;2022-11-03T07:53:04;5.50;;;4.10;;
17259;SDS011;8746;49.230;9.220;2022-11-03T07:55:37;4.37;;;3.60;;
17259;SDS011;8746;49.230;9.220;2022-11-03T07:58:11;5.77;;;4.60;;
17259;SDS011;8746;49.230;9.220;2022-11-03T08:00:43;6.03;;;4.23;;
17259;SDS011;8746;49.230;9.220;2022-11-03T08:03:12;4.17;;;3.30;;
17259;SDS011;8746;49.230;9.220;2022-11-03T08:05:45;4.93;;;3.93;;
17259;SDS011;8746;49.230;9.220;2022-11-03T08:08:11;5.03;;;3.47;;
17259;SDS011;8746;49.230;9.220;2022-11-03T08:10:36;5.90;;;3.77;;
17259;SDS011;8746;49.230;9.220;2022-11-03T08:13:02;6.10;;;3.67;;
17259;SDS011;8746;49.230;9.220;2022-11-03T08:15:27;4.43;;;3.50;;
17259;SDS011;8746;49.230;9.220;2022-11-03T08:17:52;3.93;;;3.40;;
17259;SDS011;8746;49.230;9.220;2022-11-03T08:20:18;8.17;;;3.90;;
17259;SDS011;8746;49.230;9.220;2022-11-03T08:22:43;5.20;;;3.47;;
17259;SDS011;8746;49.230;9.220;2022-11-03T08:25:08;4.30;;;3.40;;
17259;SDS011;8746;49.230;9.220;2022-11-03T08:27:34;3.77;;;3.30;;
17259;SDS011;8746;49.230;9.220;2022-11-03T08:29:59;4.73;;;3.23;;
17259;SDS011;8746;49.230;9.220;2022-11-03T08:32:25;4.33;;;3.10;;
17259;SDS011;8746;49.230;9.220;2022-11-03T08:34:50;3.57;;;3.10;;
17259;SDS011;8746;49.230;9.220;2022-11-03T08:37:15;4.50;;;3.40;;
17259;SDS011;8746;49.230;9.220;2022-11-03T08:39:41;5.30;;;2.90;;
17259;SDS011;8746;49.230;9.220;2022-11-03T08:42:06;8.47;;;3.53;;
17259;SDS011;8746;49.230;9.220;2022-11-03T08:44:32;3.30;;;3.00;;
17259;SDS011;8746;49.230;9.220;2022-11-03T08:46:57;6.13;;;3.53;;
17259;SDS011;8746;49.230;9.220;2022-11-03T08:49:22;4.67;;;3.70;;
17259;SDS011;8746;49.230;9.220;2022-11-03T08:51:48;4.47;;;3.70;;
17259;SDS011;8746;49.230;9.220;2022-11-03T08:54:13;5.40;;;3.50;;
17259;SDS011;8746;49.230;9.220;2022-11-03T08:56:38;4.57;;;3.93;;
17259;SDS011;8746;49.230;9.220;2022-11-03T08:59:04;5.87;;;4.23;;
17259;SDS011;8746;49.230;9.220;2022-11-03T09:01:29;4.57;;;3.57;;
17259;SDS011;8746;49.230;9.220;2022-11-03T09:03:54;4.53;;;3.27;;
17259;SDS011;8746;49.230;9.220;2022-11-03T09:06:20;4.80;;;3.20;;
17259;SDS011;8746;49.230;9.220;2022-11-03T09:08:45;8.07;;;4.03;;
17259;SDS011;8746;49.230;9.220;2022-11-03T09:11:10;4.50;;;3.93;;
17259;SDS011;8746;49.230;9.220;2022-11-03T09:13:36;5.17;;;3.40;;
17259;SDS011;8746;49.230;9.220;2022-11-03T09:16:01;7.03;;;3.77;;
17259;SDS011;8746;49.230;9.220;2022-11-03T09:18:26;4.43;;;3.37;;
17259;SDS011;8746;49.230;9.220;2022-11-03T09:20:52;4.03;;;3.57;;
17259;SDS011;8746;49.230;9.220;2022-11-03T09:23:17;3.67;;;3.13;;
17259;SDS011;8746;49.230;9.220;2022-11-03T09:25:43;6.63;;;3.47;;
17259;SDS011;8746;49.230;9.220;2022-11-03T09:28:08;5.83;;;3.40;;
17259;SDS011;8746;49.230;9.220;2022-11-03T09:30:33;5.83;;;3.70;;
17259;SDS011;8746;49.230;9.220;2022-11-03T09:32:58;10.40;;;3.43;;
17259;SDS011;8746;49.230;9.220;2022-11-03T09:35:24;4.37;;;3.13;;
17259;SDS011;8746;49.230;9.220;2022-11-03T09:37:49;3.43;;;3.13;;
17259;SDS011;8746;49.230;9.220;2022-11-03T09:40:14;4.63;;;3.13;;
17259;SDS011;8746;49.230;9.220;2022-11-03T09:42:41;5.50;;;3.23;;
17259;SDS011;8746;49.230;9.220;2022-11-03T09:45:07;3.97;;;2.73;;
17259;SDS011;8746;49.230;9.220;2022-11-03T09:47:35;6.50;;;3.50;;
17259;SDS011;8746;49.230;9.220;2022-11-03T09:50:02;4.27;;;3.23;;
17259;SDS011;8746;49.230;9.220;2022-11-03T09:52:28;3.97;;;2.63;;
17259;SDS011;8746;49.230;9.220;2022-11-03T09:54:55;4.03;;;2.83;;
17259;SDS011;8746;49.230;9.220;2022-11-03T09:57:21;6.40;;;2.87;;
17259;SDS011;8746;49.230;9.220;2022-11-03T09:59:47;3.43;;;3.00;;
17259;SDS011;8746;49.230;9.220;2022-11-03T10:02:16;4.83;;;3.13;;
17259;SDS011;8746;49.230;9.220;2022-11-03T10:04:46;4.93;;;3.23;;
17259;SDS011;8746;49.230;9.220;2022-11-03T10:07:13;5.90;;;3.40;;
17259;SDS011;8746;49.230;9.220;2022-11-03T10:09:40;5.57;;;3.00;;
17259;SDS011;8746;49.230;9.220;2022-11-03T10:12:09;6.10;;;2.90;;
17259;SDS011;8746;49.230;9.220;2022-11-03T10:14:35;7.43;;;3.70;;
17259;SDS011;8746;49.230;9.220;2022-11-03T10:17:00;5.73;;;3.53;;
17259;SDS011;8746;49.230;9.220;2022-11-03T10:19:26;4.93;;;3.37;;
17259;SDS011;8746;49.230;9.220;2022-11-03T10:21:52;6.33;;;3.03;;
17259;SDS011;8746;49.230;9.220;2022-11-03T10:24:17;3.30;;;2.83;;
17259;SDS011;8746;49.230;9.220;2022-11-03T10:26:44;4.03;;;2.80;;
17259;SDS011;8746;49.230;9.220;2022-11-03T10:29:22;5.03;;;3.07;;
17259;SDS011;8746;49.230;9.220;2022-11-03T10:31:50;2.97;;;2.53;;
17259;SDS011;8746;49.230;9.220;2022-11-03T10:34:33;3.77;;;3.03;;
17259;SDS011;8746;49.230;9.220;2022-11-03T10:39:53;5.47;;;3.07;;
17259;SDS011;8746;49.230;9.220;2022-11-03T10:42:27;3.57;;;3.03;;
17259;SDS011;8746;49.230;9.220;2022-11-03T10:45:10;6.87;;;3.30;;
17259;SDS011;8746;49.230;9.220;2022-11-03T10:47:41;4.77;;;2.97;;
17259;SDS011;8746;49.230;9.220;2022-11-03T10:52:46;5.23;;;2.90;;
17259;SDS011;8746;49.230;9.220;2022-11-03T10:55:12;3.20;;;2.70;;
17259;SDS011;8746;49.230;9.220;2022-11-03T10:57:37;5.63;;;3.03;;
17259;SDS011;8746;49.230;9.220;2022-11-03T11:00:03;4.63;;;3.63;;
17259;SDS011;8746;49.230;9.220;2022-11-03T11:02:30;4.97;;;3.77;;
17259;SDS011;8746;49.230;9.220;2022-11-03T11:05:00;6.90;;;3.27;;
17259;SDS011;8746;49.230;9.220;2022-11-03T11:07:43;7.00;;;3.27;;
17259;SDS011;8746;49.230;9.220;2022-11-03T11:10:16;3.53;;;3.10;;
17259;SDS011;8746;49.230;9.220;2022-11-03T11:15:46;4.50;;;3.03;;
17259;SDS011;8746;49.230;9.220;2022-11-03T11:21:01;3.93;;;3.03;;
17259;SDS011;8746;49.230;9.220;2022-11-03T11:23:44;5.47;;;3.40;;
17259;SDS011;8746;49.230;9.220;2022-11-03T11:28:44;6.80;;;3.30;;
17259;SDS011;8746;49.230;9.220;2022-11-03T11:31:27;5.47;;;3.20;;
17259;SDS011;8746;49.230;9.220;2022-11-03T11:47:18;5.83;;;3.50;;
17259;SDS011;8746;49.230;9.220;2022-11-03T11:52:29;3.90;;;2.93;;
17259;SDS011;8746;49.230;9.220;2022-11-03T11:54:55;4.33;;;3.20;;
17259;SDS011;8746;49.230;9.220;2022-11-03T11:57:21;8.20;;;2.77;;
17259;SDS011;8746;49.230;9.220;2022-11-03T11:59:47;4.23;;;2.93;;
17259;SDS011;8746;49.230;9.220;2022-11-03T12:02:24;5.73;;;3.40;;
17259;SDS011;8746;49.230;9.220;2022-11-03T12:04:56;3.70;;;2.80;;
17259;SDS011;8746;49.230;9.220;2022-11-03T12:07:33;3.67;;;2.90;;
17259;SDS011;8746;49.230;9.220;2022-11-03T12:10:33;2.90;;;2.60;;
17259;SDS011;8746;49.230;9.220;2022-11-03T12:12:54;3.53;;;2.90;;
17259;SDS011;8746;49.230;9.220;2022-11-03T12:18:27;4.23;;;2.80;;
17259;SDS011;8746;49.230;9.220;2022-11-03T12:20:53;3.47;;;3.10;;
17259;SDS011;8746;49.230;9.220;2022-11-03T12:26:05;4.47;;;3.10;;
17259;SDS011;8746;49.230;9.220;2022-11-03T12:28:37;4.00;;;3.50;;
17259;SDS011;8746;49.230;9.220;2022-11-03T12:31:03;5.00;;;3.03;;
17259;SDS011;8746;49.230;9.220;2022-11-03T12:33:28;4.90;;;3.50;;
17259;SDS011;8746;49.230;9.220;2022-11-03T12:35:54;4.10;;;3.70;;
17259;SDS011;8746;49.230;9.220;2022-11-03T12:38:20;5.23;;;3.07;;
17259;SDS011;8746;49.230;9.220;2022-11-03T12:40:46;5.47;;;3.70;;
17259;SDS011;8746;49.230;9.220;2022-11-03T12:43:11;3.77;;;2.80;;
17259;SDS011;8746;49.230;9.220;2022-11-03T12:45:37;5.37;;;3.10;;
17259;SDS011;8746;49.230;9.220;2022-11-03T12:48:02;5.40;;;3.20;;
17259;SDS011;8746;49.230;9.220;2022-11-03T12:50:28;3.40;;;3.00;;
17259;SDS011;8746;49.230;9.220;2022-11-03T12:52:54;6.07;;;2.93;;
17259;SDS011;8746;49.230;9.220;2022-11-03T12:55:19;2.97;;;2.67;;
17259;SDS011;8746;49.230;9.220;2022-11-03T12:57:44;4.67;;;3.03;;
17259;SDS011;8746;49.230;9.220;2022-11-03T13:00:10;4.27;;;3.27;;
17259;SDS011;8746;49.230;9.220;2022-11-03T13:02:36;3.87;;;3.03;;
17259;SDS011;8746;49.230;9.220;2022-11-03T13:05:03;5.70;;;3.00;;
17259;SDS011;8746;49.230;9.220;2022-11-03T13:07:29;3.53;;;2.90;;
17259;SDS011;8746;49.230;9.220;2022-11-03T13:09:54;8.00;;;2.83;;
17259;SDS011;8746;49.230;9.220;2022-11-03T13:12:19;4.70;;;2.80;;
17259;SDS011;8746;49.230;9.220;2022-11-03T13:14:59;5.67;;;2.80;;
17259;SDS011;8746;49.230;9.220;2022-11-03T13:17:26;2.90;;;2.20;;
17259;SDS011;8746;49.230;9.220;2022-11-03T13:19:51;3.13;;;2.53;;
17259;SDS011;8746;49.230;9.220;2022-11-03T13:22:17;4.77;;;2.80;;
17259;SDS011;8746;49.230;9.220;2022-11-03T13:24:43;4.07;;;2.63;;
17259;SDS011;8746;49.230;9.220;2022-11-03T13:27:08;3.90;;;2.70;;
17259;SDS011;8746;49.230;9.220;2022-11-03T13:29:34;4.40;;;3.67;;
17259;SDS011;8746;49.230;9.220;2022-11-03T13:32:00;4.87;;;3.37;;
17259;SDS011;8746;49.230;9.220;2022-11-03T13:34:27;3.53;;;2.77;;
17259;SDS011;8746;49.230;9.220;2022-11-03T13:36:53;4.77;;;2.60;;
17259;SDS011;8746;49.230;9.220;2022-11-03T13:39:18;4.23;;;2.60;;
17259;SDS011;8746;49.230;9.220;2022-11-03T13:41:43;2.80;;;2.40;;
17259;SDS011;8746;49.230;9.220;2022-11-03T13:44:09;6.93;;;2.80;;
17259;SDS011;8746;49.230;9.220;2022-11-03T13:46:34;4.40;;;3.07;;
17259;SDS011;8746;49.230;9.220;2022-11-03T13:49:00;5.33;;;2.90;;
17259;SDS011;8746;49.230;9.220;2022-11-03T13:51:25;4.60;;;3.43;;
17259;SDS011;8746;49.230;9.220;2022-11-03T13:53:51;3.90;;;3.17;;
17259;SDS011;8746;49.230;9.220;2022-11-03T13:56:16;3.77;;;3.27;;
17259;SDS011;8746;49.230;9.220;2022-11-03T13:58:41;5.40;;;3.57;;
17259;SDS011;8746;49.230;9.220;2022-11-03T14:01:07;3.53;;;3.10;;
17259;SDS011;8746;49.230;9.220;2022-11-03T14:03:32;4.93;;;3.60;;
17259;SDS011;8746;49.230;9.220;2022-11-03T14:05:57;3.47;;;3.10;;
17259;SDS011;8746;49.230;9.220;2022-11-03T14:08:23;5.27;;;3.40;;
17259;SDS011;8746;49.230;9.220;2022-11-03T14:10:48;5.47;;;3.37;;
17259;SDS011;8746;49.230;9.220;2022-11-03T14:13:13;3.30;;;2.93;;
17259;SDS011;8746;49.230;9.220;2022-11-03T14:15:39;7.40;;;3.37;;
17259;SDS011;8746;49.230;9.220;2022-11-03T14:18:04;4.87;;;3.70;;
17259;SDS011;8746;49.230;9.220;2022-11-03T14:20:29;7.73;;;5.30;;
17259;SDS011;8746;49.230;9.220;2022-11-03T14:22:55;8.57;;;5.50;;
17259;SDS011;8746;49.230;9.220;2022-11-03T14:25:20;9.43;;;6.03;;
17259;SDS011;8746;49.230;9.220;2022-11-03T14:27:45;10.20;;;5.20;;
17259;SDS011;8746;49.230;9.220;2022-11-03T14:30:11;3.93;;;3.53;;
17259;SDS011;8746;49.230;9.220;2022-11-03T14:32:37;5.73;;;3.63;;
17259;SDS011;8746;49.230;9.220;2022-11-03T14:35:03;5.80;;;3.60;;
17259;SDS011;8746;49.230;9.220;2022-11-03T14:37:29;3.37;;;3.07;;
17259;SDS011;8746;49.230;9.220;2022-11-03T14:39:54;3.57;;;2.87;;
17259;SDS011;8746;49.230;9.220;2022-11-03T14:42:20;6.07;;;3.10;;
17259;SDS011;8746;49.230;9.220;2022-11-03T14:44:45;4.33;;;3.40;;
17259;SDS011;8746;49.230;9.220;2022-11-03T14:47:12;5.67;;;2.97;;
17259;SDS011;8746;49.230;9.220;2022-11-03T14:49:42;3.00;;;2.60;;
17259;SDS011;8746;49.230;9.220;2022-11-03T14:52:07;3.00;;;2.57;;
17259;SDS011;8746;49.230;9.220;2022-11-03T14:54:33;3.10;;;2.77;;
17259;SDS011;8746;49.230;9.220;2022-11-03T14:57:00;7.30;;;2.90;;
17259;SDS011;8746;49.230;9.220;2022-11-03T14:59:26;4.17;;;2.50;;
17259;SDS011;8746;49.230;9.220;2022-11-03T15:01:52;3.77;;;2.90;;
17259;SDS011;8746;49.230;9.220;2022-11-03T15:04:18;3.20;;;2.90;;
17259;SDS011;8746;49.230;9.220;2022-11-03T15:06:44;4.70;;;3.20;;
17259;SDS011;8746;49.230;9.220;2022-11-03T15:09:10;4.33;;;3.30;;
17259;SDS011;8746;49.230;9.220;2022-11-03T15:11:38;6.90;;;3.40;;
17259;SDS011;8746;49.230;9.220;2022-11-03T15:14:04;4.80;;;3.50;;
17259;SDS011;8746;49.230;9.220;2022-11-03T15:16:29;5.07;;;3.53;;
17259;SDS011;8746;49.230;9.220;2022-11-03T15:18:55;5.37;;;3.40;;
17259;SDS011;8746;49.230;9.220;2022-11-03T15:21:20;4.10;;;3.40;;
17259;SDS011;8746;49.230;9.220;2022-11-03T15:23:46;3.93;;;3.50;;
17259;SDS011;8746;49.230;9.220;2022-11-03T15:26:11;3.70;;;3.40;;
17259;SDS011;8746;49.230;9.220;2022-11-03T15:28:37;5.57;;;3.23;;
17259;SDS011;8746;49.230;9.220;2022-11-03T15:31:03;6.20;;;3.87;;
17259;SDS011;8746;49.230;9.220;2022-11-03T15:33:28;6.03;;;4.03;;
17259;SDS011;8746;49.230;9.220;2022-11-03T15:35:53;5.93;;;4.10;;
17259;SDS011;8746;49.230;9.220;2022-11-03T15:38:19;4.67;;;3.50;;
17259;SDS011;8746;49.230;9.220;2022-11-03T15:40:44;5.37;;;3.33;;
17259;SDS011;8746;49.230;9.220;2022-11-03T15:43:10;3.30;;;3.00;;
17259;SDS011;8746;49.230;9.220;2022-11-03T15:45:36;4.70;;;3.10;;
17259;SDS011;8746;49.230;9.220;2022-11-03T15:48:01;9.40;;;4.50;;
17259;SDS011;8746;49.230;9.220;2022-11-03T15:50:27;7.30;;;4.20;;
17259;SDS011;8746;49.230;9.220;2022-11-03T15:52:53;4.80;;;3.97;;
17259;SDS011;8746;49.230;9.220;2022-11-03T15:55:19;6.23;;;4.33;;
17259;SDS011;8746;49.230;9.220;2022-11-03T15:57:46;4.77;;;3.53;;
17259;SDS011;8746;49.230;9.220;2022-11-03T16:00:12;7.27;;;4.00;;
17259;SDS011;8746;49.230;9.220;2022-11-03T16:02:38;7.17;;;3.70;;
17259;SDS011;8746;49.230;9.220;2022-11-03T16:05:04;6.07;;;3.47;;
17259;SDS011;8746;49.230;9.220;2022-11-03T16:07:30;6.47;;;3.87;;
17259;SDS011;8746;49.230;9.220;2022-11-03T16:09:55;4.17;;;3.70;;
17259;SDS011;8746;49.230;9.220;2022-11-03T16:12:21;5.67;;;3.67;;
17259;SDS011;8746;49.230;9.220;2022-11-03T16:14:48;6.83;;;5.00;;
17259;SDS011;8746;49.230;9.220;2022-11-03T16:17:17;14.53;;;10.27;;
17259;SDS011;8746;49.230;9.220;2022-11-03T16:19:43;14.70;;;10.77;;
17259;SDS011;8746;49.230;9.220;2022-11-03T16:22:08;13.37;;;10.53;;
17259;SDS011;8746;49.230;9.220;2022-11-03T16:24:34;15.27;;;9.60;;
17259;SDS011;8746;49.230;9.220;2022-11-03T16:27:00;12.67;;;9.23;;
17259;SDS011;8746;49.230;9.220;2022-11-03T16:29:25;16.20;;;8.80;;
17259;SDS011;8746;49.230;9.220;2022-11-03T16:31:51;13.50;;;9.30;;
17259;SDS011;8746;49.230;9.220;2022-11-03T16:34:16;12.23;;;7.83;;
17259;SDS011;8746;49.230;9.220;2022-11-03T16:36:42;14.57;;;7.33;;
17259;SDS011;8746;49.230;9.220;2022-11-03T16:39:07;13.60;;;8.47;;